sensor_id;sensor_type;location;lat;lon;timestamp;P1;durP1;ratioP1;P2;durP2;ratioP2
2698;SDS011;1359;51.798;12.174;2023-04-25T00:02:24;9.17;;;5.97;;
2698;SDS011;1359;51.798;12.174;2023-04-25T00:04:50;7.60;;;6.40;;
2698;SDS011;1359;51.798;12.174;2023-04-25T00:07:15;6.90;;;5.80;;
2698;SDS011;1359;51.798;12.174;2023-04-25T00:09:41;7.40;;;5.53;;
2698;SDS011;1359;51.798;12.174;2023-04-25T00:12:07;7.70;;;6.03;;
2698;SDS011;1359;51.798;12.174;2023-04-25T00:14:32;6.70;;;6.03;;
2698;SDS011;1359;51.798;12.174;2023-04-25T00:16:59;6.00;;;5.40;;
2698;SDS011;1359;51.798;12.174;2023-04-25T00:19:24;8.47;;;7.10;;
2698;SDS011;1359;51.798;12.174;2023-04-25T00:21:52;6.60;;;6.10;;
2698;SDS011;1359;51.798;12.174;2023-04-25T00:24:19;8.50;;;6.00;;
2698;SDS011;1359;51.798;12.174;2023-04-25T00:26:44;6.77;;;6.10;;
2698;SDS011;1359;51.798;12.174;2023-04-25T00:29:09;6.57;;;5.97;;
2698;SDS011;1359;51.798;12.174;2023-04-25T00:31:35;7.40;;;6.40;;
2698;SDS011;1359;51.798;12.174;2023-04-25T00:34:00;6.70;;;6.10;;
2698;SDS011;1359;51.798;12.174;2023-04-25T00:36:26;9.60;;;6.00;;
2698;SDS011;1359;51.798;12.174;2023-04-25T00:38:52;7.77;;;6.63;;
2698;SDS011;1359;51.798;12.174;2023-04-25T00:41:17;7.13;;;6.20;;
2698;SDS011;1359;51.798;12.174;2023-04-25T00:43:44;7.93;;;6.43;;
2698;SDS011;1359;51.798;12.174;2023-04-25T00:46:10;8.87;;;7.17;;
2698;SDS011;1359;51.798;12.174;2023-04-25T00:48:35;6.83;;;6.23;;
2698;SDS011;1359;51.798;12.174;2023-04-25T00:51:00;9.00;;;7.50;;
2698;SDS011;1359;51.798;12.174;2023-04-25T00:53:27;7.57;;;6.83;;
2698;SDS011;1359;51.798;12.174;2023-04-25T00:55:53;10.70;;;6.70;;
2698;SDS011;1359;51.798;12.174;2023-04-25T00:58:18;8.87;;;7.23;;
2698;SDS011;1359;51.798;12.174;2023-04-25T01:00:45;6.83;;;6.23;;
2698;SDS011;1359;51.798;12.174;2023-04-25T01:03:10;13.50;;;6.50;;
2698;SDS011;1359;51.798;12.174;2023-04-25T01:05:36;7.80;;;7.07;;
2698;SDS011;1359;51.798;12.174;2023-04-25T01:08:01;7.13;;;5.73;;
2698;SDS011;1359;51.798;12.174;2023-04-25T01:10:26;6.07;;;5.57;;
2698;SDS011;1359;51.798;12.174;2023-04-25T01:12:52;8.00;;;5.63;;
2698;SDS011;1359;51.798;12.174;2023-04-25T01:15:17;7.23;;;5.20;;
2698;SDS011;1359;51.798;12.174;2023-04-25T01:17:42;6.57;;;5.97;;
2698;SDS011;1359;51.798;12.174;2023-04-25T01:20:09;6.10;;;5.23;;
2698;SDS011;1359;51.798;12.174;2023-04-25T01:22:35;7.47;;;5.90;;
2698;SDS011;1359;51.798;12.174;2023-04-25T01:25:01;6.07;;;5.43;;
2698;SDS011;1359;51.798;12.174;2023-04-25T01:27:27;6.33;;;5.70;;
2698;SDS011;1359;51.798;12.174;2023-04-25T01:29:53;8.13;;;7.33;;
2698;SDS011;1359;51.798;12.174;2023-04-25T01:32:19;7.77;;;6.60;;
2698;SDS011;1359;51.798;12.174;2023-04-25T01:34:44;6.07;;;5.47;;
2698;SDS011;1359;51.798;12.174;2023-04-25T01:37:10;6.60;;;6.00;;
2698;SDS011;1359;51.798;12.174;2023-04-25T01:39:35;7.33;;;6.30;;
2698;SDS011;1359;51.798;12.174;2023-04-25T01:42:00;8.43;;;6.40;;
2698;SDS011;1359;51.798;12.174;2023-04-25T01:44:26;7.90;;;5.73;;
2698;SDS011;1359;51.798;12.174;2023-04-25T01:46:53;6.53;;;5.93;;
2698;SDS011;1359;51.798;12.174;2023-04-25T01:49:18;6.80;;;6.10;;
2698;SDS011;1359;51.798;12.174;2023-04-25T01:51:44;6.50;;;5.90;;
2698;SDS011;1359;51.798;12.174;2023-04-25T01:54:10;8.03;;;6.37;;
2698;SDS011;1359;51.798;12.174;2023-04-25T01:56:36;6.03;;;5.00;;
2698;SDS011;1359;51.798;12.174;2023-04-25T01:59:02;7.30;;;6.53;;
2698;SDS011;1359;51.798;12.174;2023-04-25T02:01:31;6.37;;;5.77;;
2698;SDS011;1359;51.798;12.174;2023-04-25T02:04:11;8.13;;;6.30;;
2698;SDS011;1359;51.798;12.174;2023-04-25T02:06:39;7.33;;;6.40;;
2698;SDS011;1359;51.798;12.174;2023-04-25T02:09:05;6.80;;;6.20;;
2698;SDS011;1359;51.798;12.174;2023-04-25T02:11:31;6.37;;;5.77;;
2698;SDS011;1359;51.798;12.174;2023-04-25T02:14:19;8.37;;;5.70;;
2698;SDS011;1359;51.798;12.174;2023-04-25T02:17:11;7.87;;;6.30;;
2698;SDS011;1359;51.798;12.174;2023-04-25T02:19:37;8.57;;;7.20;;
2698;SDS011;1359;51.798;12.174;2023-04-25T02:22:03;7.90;;;6.30;;
2698;SDS011;1359;51.798;12.174;2023-04-25T02:24:28;8.83;;;6.50;;
2698;SDS011;1359;51.798;12.174;2023-04-25T02:26:55;6.30;;;5.70;;
2698;SDS011;1359;51.798;12.174;2023-04-25T02:29:23;7.17;;;6.30;;
2698;SDS011;1359;51.798;12.174;2023-04-25T02:31:48;7.17;;;6.47;;
2698;SDS011;1359;51.798;12.174;2023-04-25T02:34:13;6.60;;;6.00;;
2698;SDS011;1359;51.798;12.174;2023-04-25T02:36:39;6.73;;;6.00;;
2698;SDS011;1359;51.798;12.174;2023-04-25T02:39:04;9.63;;;5.97;;
2698;SDS011;1359;51.798;12.174;2023-04-25T02:41:30;8.03;;;6.10;;
2698;SDS011;1359;51.798;12.174;2023-04-25T02:43:55;6.50;;;5.60;;
2698;SDS011;1359;51.798;12.174;2023-04-25T02:46:20;7.07;;;6.37;;
2698;SDS011;1359;51.798;12.174;2023-04-25T02:48:46;7.73;;;5.70;;
2698;SDS011;1359;51.798;12.174;2023-04-25T02:51:11;13.10;;;6.73;;
2698;SDS011;1359;51.798;12.174;2023-04-25T02:53:37;5.93;;;5.43;;
2698;SDS011;1359;51.798;12.174;2023-04-25T02:56:02;7.70;;;6.30;;
2698;SDS011;1359;51.798;12.174;2023-04-25T02:58:28;7.03;;;6.33;;
2698;SDS011;1359;51.798;12.174;2023-04-25T03:00:53;9.00;;;5.43;;
2698;SDS011;1359;51.798;12.174;2023-04-25T03:03:19;8.37;;;6.27;;
2698;SDS011;1359;51.798;12.174;2023-04-25T03:05:50;6.90;;;5.60;;
2698;SDS011;1359;51.798;12.174;2023-04-25T03:08:19;7.90;;;5.43;;
2698;SDS011;1359;51.798;12.174;2023-04-25T03:10:45;5.50;;;4.80;;
2698;SDS011;1359;51.798;12.174;2023-04-25T03:13:12;11.30;;;8.00;;
2698;SDS011;1359;51.798;12.174;2023-04-25T03:15:38;6.87;;;5.30;;
2698;SDS011;1359;51.798;12.174;2023-04-25T03:18:03;6.73;;;6.13;;
2698;SDS011;1359;51.798;12.174;2023-04-25T03:20:29;8.27;;;5.90;;
2698;SDS011;1359;51.798;12.174;2023-04-25T03:22:54;8.13;;;5.60;;
2698;SDS011;1359;51.798;12.174;2023-04-25T03:25:19;6.47;;;5.90;;
2698;SDS011;1359;51.798;12.174;2023-04-25T03:27:45;6.57;;;5.80;;
2698;SDS011;1359;51.798;12.174;2023-04-25T03:30:10;7.23;;;4.87;;
2698;SDS011;1359;51.798;12.174;2023-04-25T03:32:37;6.80;;;5.30;;
2698;SDS011;1359;51.798;12.174;2023-04-25T03:35:02;8.97;;;6.53;;
2698;SDS011;1359;51.798;12.174;2023-04-25T03:37:29;9.73;;;5.30;;
2698;SDS011;1359;51.798;12.174;2023-04-25T03:39:54;7.77;;;4.67;;
2698;SDS011;1359;51.798;12.174;2023-04-25T03:42:22;6.90;;;5.17;;
2698;SDS011;1359;51.798;12.174;2023-04-25T03:44:48;10.40;;;5.97;;
2698;SDS011;1359;51.798;12.174;2023-04-25T03:47:14;6.10;;;5.17;;
2698;SDS011;1359;51.798;12.174;2023-04-25T03:49:39;9.97;;;6.40;;
2698;SDS011;1359;51.798;12.174;2023-04-25T03:52:05;8.00;;;5.57;;
2698;SDS011;1359;51.798;12.174;2023-04-25T03:54:37;10.13;;;5.30;;
2698;SDS011;1359;51.798;12.174;2023-04-25T03:57:06;7.67;;;5.10;;
2698;SDS011;1359;51.798;12.174;2023-04-25T03:59:36;8.70;;;6.30;;
2698;SDS011;1359;51.798;12.174;2023-04-25T04:02:02;17.83;;;6.50;;
2698;SDS011;1359;51.798;12.174;2023-04-25T04:04:28;6.40;;;5.33;;
2698;SDS011;1359;51.798;12.174;2023-04-25T04:06:53;7.93;;;5.87;;
2698;SDS011;1359;51.798;12.174;2023-04-25T04:09:23;6.60;;;5.90;;
2698;SDS011;1359;51.798;12.174;2023-04-25T04:11:49;6.50;;;4.73;;
2698;SDS011;1359;51.798;12.174;2023-04-25T04:14:14;8.30;;;5.90;;
2698;SDS011;1359;51.798;12.174;2023-04-25T04:16:43;7.73;;;5.87;;
2698;SDS011;1359;51.798;12.174;2023-04-25T04:19:09;7.63;;;6.47;;
2698;SDS011;1359;51.798;12.174;2023-04-25T04:21:35;9.67;;;5.87;;
2698;SDS011;1359;51.798;12.174;2023-04-25T04:24:02;7.10;;;6.10;;
2698;SDS011;1359;51.798;12.174;2023-04-25T04:26:31;6.60;;;6.00;;
2698;SDS011;1359;51.798;12.174;2023-04-25T04:29:21;7.27;;;6.10;;
2698;SDS011;1359;51.798;12.174;2023-04-25T04:31:57;6.20;;;5.60;;
2698;SDS011;1359;51.798;12.174;2023-04-25T04:34:23;14.27;;;5.67;;
2698;SDS011;1359;51.798;12.174;2023-04-25T04:36:50;11.17;;;6.67;;
2698;SDS011;1359;51.798;12.174;2023-04-25T04:39:15;7.83;;;5.33;;
2698;SDS011;1359;51.798;12.174;2023-04-25T04:41:54;11.70;;;5.23;;
2698;SDS011;1359;51.798;12.174;2023-04-25T04:44:33;8.37;;;5.53;;
2698;SDS011;1359;51.798;12.174;2023-04-25T04:47:24;14.13;;;5.67;;
2698;SDS011;1359;51.798;12.174;2023-04-25T04:50:03;5.93;;;5.17;;
2698;SDS011;1359;51.798;12.174;2023-04-25T04:52:42;13.77;;;6.30;;
2698;SDS011;1359;51.798;12.174;2023-04-25T04:55:26;11.77;;;5.77;;
2698;SDS011;1359;51.798;12.174;2023-04-25T04:58:20;7.03;;;5.70;;
2698;SDS011;1359;51.798;12.174;2023-04-25T05:01:04;10.73;;;5.87;;
2698;SDS011;1359;51.798;12.174;2023-04-25T05:03:52;12.33;;;7.40;;
2698;SDS011;1359;51.798;12.174;2023-04-25T05:06:39;7.30;;;5.63;;
2698;SDS011;1359;51.798;12.174;2023-04-25T05:09:14;7.07;;;6.20;;
2698;SDS011;1359;51.798;12.174;2023-04-25T05:11:58;7.50;;;6.27;;
2698;SDS011;1359;51.798;12.174;2023-04-25T05:14:36;10.73;;;6.37;;
2698;SDS011;1359;51.798;12.174;2023-04-25T05:17:24;6.33;;;5.70;;
2698;SDS011;1359;51.798;12.174;2023-04-25T05:20:08;8.47;;;5.53;;
2698;SDS011;1359;51.798;12.174;2023-04-25T05:22:58;13.47;;;6.20;;
2698;SDS011;1359;51.798;12.174;2023-04-25T05:25:44;6.90;;;5.63;;
2698;SDS011;1359;51.798;12.174;2023-04-25T05:28:18;9.30;;;6.70;;
2698;SDS011;1359;51.798;12.174;2023-04-25T05:30:51;6.93;;;6.23;;
2698;SDS011;1359;51.798;12.174;2023-04-25T05:33:20;7.90;;;6.73;;
2698;SDS011;1359;51.798;12.174;2023-04-25T05:35:46;11.67;;;6.13;;
2698;SDS011;1359;51.798;12.174;2023-04-25T05:38:11;10.37;;;6.00;;
2698;SDS011;1359;51.798;12.174;2023-04-25T05:40:56;11.10;;;6.77;;
2698;SDS011;1359;51.798;12.174;2023-04-25T05:43:43;7.90;;;5.60;;
2698;SDS011;1359;51.798;12.174;2023-04-25T05:46:30;7.13;;;5.80;;
2698;SDS011;1359;51.798;12.174;2023-04-25T05:49:16;8.03;;;6.17;;
2698;SDS011;1359;51.798;12.174;2023-04-25T05:51:55;16.53;;;6.27;;
2698;SDS011;1359;51.798;12.174;2023-04-25T05:54:33;10.80;;;6.73;;
2698;SDS011;1359;51.798;12.174;2023-04-25T05:56:58;7.50;;;5.27;;
2698;SDS011;1359;51.798;12.174;2023-04-25T05:59:24;7.03;;;5.17;;
2698;SDS011;1359;51.798;12.174;2023-04-25T06:01:49;7.77;;;5.73;;
2698;SDS011;1359;51.798;12.174;2023-04-25T06:04:15;16.47;;;5.77;;
2698;SDS011;1359;51.798;12.174;2023-04-25T06:06:40;10.43;;;6.20;;
2698;SDS011;1359;51.798;12.174;2023-04-25T06:09:05;10.00;;;5.90;;
2698;SDS011;1359;51.798;12.174;2023-04-25T06:11:31;14.40;;;6.20;;
2698;SDS011;1359;51.798;12.174;2023-04-25T06:13:57;9.00;;;6.53;;
2698;SDS011;1359;51.798;12.174;2023-04-25T06:16:22;12.83;;;6.63;;
2698;SDS011;1359;51.798;12.174;2023-04-25T06:18:49;8.70;;;6.60;;
2698;SDS011;1359;51.798;12.174;2023-04-25T06:21:15;11.10;;;6.50;;
2698;SDS011;1359;51.798;12.174;2023-04-25T06:23:40;8.53;;;5.53;;
2698;SDS011;1359;51.798;12.174;2023-04-25T06:26:08;11.83;;;6.20;;
2698;SDS011;1359;51.798;12.174;2023-04-25T06:28:36;9.07;;;6.13;;
2698;SDS011;1359;51.798;12.174;2023-04-25T06:31:02;9.87;;;6.20;;
2698;SDS011;1359;51.798;12.174;2023-04-25T06:33:28;6.23;;;5.60;;
2698;SDS011;1359;51.798;12.174;2023-04-25T06:35:54;8.30;;;5.27;;
2698;SDS011;1359;51.798;12.174;2023-04-25T06:38:23;9.50;;;5.97;;
2698;SDS011;1359;51.798;12.174;2023-04-25T06:40:50;8.00;;;6.30;;
2698;SDS011;1359;51.798;12.174;2023-04-25T06:43:17;11.20;;;5.93;;
2698;SDS011;1359;51.798;12.174;2023-04-25T06:46:15;18.87;;;7.13;;
2698;SDS011;1359;51.798;12.174;2023-04-25T06:48:44;7.20;;;5.93;;
2698;SDS011;1359;51.798;12.174;2023-04-25T06:51:10;10.83;;;6.90;;
2698;SDS011;1359;51.798;12.174;2023-04-25T06:53:36;9.80;;;6.70;;
2698;SDS011;1359;51.798;12.174;2023-04-25T06:56:04;7.07;;;5.20;;
2698;SDS011;1359;51.798;12.174;2023-04-25T06:58:45;6.60;;;6.00;;
2698;SDS011;1359;51.798;12.174;2023-04-25T07:01:23;8.73;;;6.10;;
2698;SDS011;1359;51.798;12.174;2023-04-25T07:03:49;10.43;;;6.30;;
2698;SDS011;1359;51.798;12.174;2023-04-25T07:06:17;5.97;;;5.37;;
2698;SDS011;1359;51.798;12.174;2023-04-25T07:08:43;7.80;;;5.70;;
2698;SDS011;1359;51.798;12.174;2023-04-25T07:11:08;10.63;;;7.83;;
2698;SDS011;1359;51.798;12.174;2023-04-25T07:13:35;8.17;;;6.10;;
2698;SDS011;1359;51.798;12.174;2023-04-25T07:16:00;11.30;;;6.23;;
2698;SDS011;1359;51.798;12.174;2023-04-25T07:18:27;15.57;;;5.87;;
2698;SDS011;1359;51.798;12.174;2023-04-25T07:20:53;10.93;;;5.67;;
2698;SDS011;1359;51.798;12.174;2023-04-25T07:23:18;12.87;;;6.37;;
2698;SDS011;1359;51.798;12.174;2023-04-25T07:25:44;9.30;;;5.83;;
2698;SDS011;1359;51.798;12.174;2023-04-25T07:28:10;9.53;;;6.23;;
2698;SDS011;1359;51.798;12.174;2023-04-25T07:30:36;9.33;;;5.60;;
2698;SDS011;1359;51.798;12.174;2023-04-25T07:33:02;4.87;;;3.93;;
2698;SDS011;1359;51.798;12.174;2023-04-25T07:35:28;9.67;;;4.87;;
2698;SDS011;1359;51.798;12.174;2023-04-25T07:37:53;11.60;;;5.70;;
2698;SDS011;1359;51.798;12.174;2023-04-25T07:40:19;17.90;;;4.90;;
2698;SDS011;1359;51.798;12.174;2023-04-25T07:42:59;9.50;;;5.23;;
2698;SDS011;1359;51.798;12.174;2023-04-25T07:45:32;14.67;;;4.40;;
2698;SDS011;1359;51.798;12.174;2023-04-25T07:47:58;5.70;;;4.40;;
2698;SDS011;1359;51.798;12.174;2023-04-25T07:50:23;9.40;;;4.87;;
2698;SDS011;1359;51.798;12.174;2023-04-25T07:52:49;8.90;;;4.70;;
2698;SDS011;1359;51.798;12.174;2023-04-25T07:55:24;5.30;;;4.47;;
2698;SDS011;1359;51.798;12.174;2023-04-25T07:58:04;6.50;;;4.17;;
2698;SDS011;1359;51.798;12.174;2023-04-25T08:00:31;13.60;;;4.70;;
2698;SDS011;1359;51.798;12.174;2023-04-25T08:03:16;15.10;;;5.00;;
2698;SDS011;1359;51.798;12.174;2023-04-25T08:05:42;13.30;;;5.47;;
2698;SDS011;1359;51.798;12.174;2023-04-25T08:08:07;10.53;;;5.40;;
2698;SDS011;1359;51.798;12.174;2023-04-25T08:10:33;13.00;;;5.27;;
2698;SDS011;1359;51.798;12.174;2023-04-25T08:12:59;12.73;;;4.07;;
2698;SDS011;1359;51.798;12.174;2023-04-25T08:15:25;15.07;;;5.67;;
2698;SDS011;1359;51.798;12.174;2023-04-25T08:17:50;5.60;;;4.73;;
2698;SDS011;1359;51.798;12.174;2023-04-25T08:20:16;10.77;;;5.33;;
2698;SDS011;1359;51.798;12.174;2023-04-25T08:22:42;10.80;;;4.30;;
2698;SDS011;1359;51.798;12.174;2023-04-25T08:25:20;11.47;;;5.60;;
2698;SDS011;1359;51.798;12.174;2023-04-25T08:27:46;13.97;;;5.23;;
2698;SDS011;1359;51.798;12.174;2023-04-25T08:30:12;12.10;;;5.57;;
2698;SDS011;1359;51.798;12.174;2023-04-25T08:32:39;13.27;;;5.57;;
2698;SDS011;1359;51.798;12.174;2023-04-25T08:35:17;8.33;;;4.87;;
2698;SDS011;1359;51.798;12.174;2023-04-25T08:37:43;9.83;;;4.60;;
2698;SDS011;1359;51.798;12.174;2023-04-25T08:40:13;11.93;;;5.57;;
2698;SDS011;1359;51.798;12.174;2023-04-25T08:42:59;15.23;;;4.80;;
2698;SDS011;1359;51.798;12.174;2023-04-25T08:45:26;14.77;;;4.67;;
2698;SDS011;1359;51.798;12.174;2023-04-25T08:47:52;11.10;;;5.33;;
2698;SDS011;1359;51.798;12.174;2023-04-25T08:50:19;15.00;;;5.53;;
2698;SDS011;1359;51.798;12.174;2023-04-25T08:52:47;9.30;;;5.90;;
2698;SDS011;1359;51.798;12.174;2023-04-25T08:55:14;11.77;;;5.40;;
2698;SDS011;1359;51.798;12.174;2023-04-25T08:57:41;20.10;;;6.37;;
2698;SDS011;1359;51.798;12.174;2023-04-25T09:00:08;15.87;;;6.00;;
2698;SDS011;1359;51.798;12.174;2023-04-25T09:02:36;10.87;;;5.77;;
2698;SDS011;1359;51.798;12.174;2023-04-25T09:05:02;10.73;;;6.23;;
2698;SDS011;1359;51.798;12.174;2023-04-25T09:07:28;10.07;;;4.80;;
2698;SDS011;1359;51.798;12.174;2023-04-25T09:09:53;13.47;;;5.23;;
2698;SDS011;1359;51.798;12.174;2023-04-25T09:12:20;7.10;;;3.80;;
2698;SDS011;1359;51.798;12.174;2023-04-25T09:15:03;7.47;;;4.80;;
2698;SDS011;1359;51.798;12.174;2023-04-25T09:17:57;10.87;;;5.50;;
2698;SDS011;1359;51.798;12.174;2023-04-25T09:20:26;16.57;;;6.30;;
2698;SDS011;1359;51.798;12.174;2023-04-25T09:23:01;19.03;;;6.23;;
2698;SDS011;1359;51.798;12.174;2023-04-25T09:25:34;11.10;;;4.17;;
2698;SDS011;1359;51.798;12.174;2023-04-25T09:28:00;10.67;;;5.27;;
2698;SDS011;1359;51.798;12.174;2023-04-25T09:30:31;10.70;;;5.43;;
2698;SDS011;1359;51.798;12.174;2023-04-25T09:33:09;16.70;;;5.50;;
2698;SDS011;1359;51.798;12.174;2023-04-25T09:35:40;8.00;;;4.20;;
2698;SDS011;1359;51.798;12.174;2023-04-25T09:40:52;10.83;;;4.70;;
2698;SDS011;1359;51.798;12.174;2023-04-25T09:43:29;14.37;;;4.80;;
2698;SDS011;1359;51.798;12.174;2023-04-25T09:45:54;10.23;;;4.90;;
2698;SDS011;1359;51.798;12.174;2023-04-25T09:48:24;6.90;;;4.27;;
2698;SDS011;1359;51.798;12.174;2023-04-25T09:51:13;8.97;;;4.40;;
2698;SDS011;1359;51.798;12.174;2023-04-25T09:53:40;7.87;;;4.67;;
2698;SDS011;1359;51.798;12.174;2023-04-25T09:56:18;14.10;;;4.67;;
2698;SDS011;1359;51.798;12.174;2023-04-25T09:58:43;9.97;;;4.77;;
2698;SDS011;1359;51.798;12.174;2023-04-25T10:01:09;10.60;;;5.27;;
2698;SDS011;1359;51.798;12.174;2023-04-25T10:03:46;12.47;;;5.30;;
2698;SDS011;1359;51.798;12.174;2023-04-25T10:06:34;13.00;;;6.10;;
2698;SDS011;1359;51.798;12.174;2023-04-25T10:09:00;20.10;;;7.80;;
2698;SDS011;1359;51.798;12.174;2023-04-25T10:11:28;16.17;;;6.30;;
2698;SDS011;1359;51.798;12.174;2023-04-25T10:13:55;16.43;;;6.57;;
2698;SDS011;1359;51.798;12.174;2023-04-25T10:16:21;15.33;;;6.23;;
2698;SDS011;1359;51.798;12.174;2023-04-25T10:18:47;13.20;;;5.23;;
2698;SDS011;1359;51.798;12.174;2023-04-25T10:21:12;10.10;;;5.33;;
2698;SDS011;1359;51.798;12.174;2023-04-25T10:23:37;16.63;;;5.80;;
2698;SDS011;1359;51.798;12.174;2023-04-25T10:26:03;11.90;;;5.53;;
2698;SDS011;1359;51.798;12.174;2023-04-25T10:28:29;10.30;;;5.43;;
2698;SDS011;1359;51.798;12.174;2023-04-25T10:33:29;14.67;;;5.73;;
2698;SDS011;1359;51.798;12.174;2023-04-25T10:35:54;20.30;;;5.30;;
2698;SDS011;1359;51.798;12.174;2023-04-25T10:38:22;12.10;;;5.30;;
2698;SDS011;1359;51.798;12.174;2023-04-25T10:41:02;9.30;;;5.47;;
2698;SDS011;1359;51.798;12.174;2023-04-25T10:45:55;15.37;;;4.97;;
2698;SDS011;1359;51.798;12.174;2023-04-25T10:48:24;9.87;;;4.60;;
2698;SDS011;1359;51.798;12.174;2023-04-25T10:50:50;8.50;;;4.90;;
2698;SDS011;1359;51.798;12.174;2023-04-25T10:53:33;13.47;;;5.23;;
2698;SDS011;1359;51.798;12.174;2023-04-25T10:55:58;6.00;;;4.73;;
2698;SDS011;1359;51.798;12.174;2023-04-25T10:58:23;7.90;;;3.87;;
2698;SDS011;1359;51.798;12.174;2023-04-25T11:00:49;11.23;;;4.33;;
2698;SDS011;1359;51.798;12.174;2023-04-25T11:03:15;11.80;;;5.80;;
2698;SDS011;1359;51.798;12.174;2023-04-25T11:05:41;11.90;;;5.70;;
2698;SDS011;1359;51.798;12.174;2023-04-25T11:08:11;8.00;;;3.87;;
2698;SDS011;1359;51.798;12.174;2023-04-25T11:10:37;11.40;;;6.20;;
2698;SDS011;1359;51.798;12.174;2023-04-25T11:13:05;6.67;;;4.73;;
2698;SDS011;1359;51.798;12.174;2023-04-25T11:15:30;9.43;;;4.90;;
2698;SDS011;1359;51.798;12.174;2023-04-25T11:17:55;7.30;;;5.03;;
2698;SDS011;1359;51.798;12.174;2023-04-25T11:20:21;7.17;;;4.53;;
2698;SDS011;1359;51.798;12.174;2023-04-25T11:22:47;9.97;;;5.37;;
2698;SDS011;1359;51.798;12.174;2023-04-25T11:25:13;11.23;;;5.30;;
2698;SDS011;1359;51.798;12.174;2023-04-25T11:27:58;7.20;;;5.07;;
2698;SDS011;1359;51.798;12.174;2023-04-25T11:30:24;16.37;;;5.77;;
2698;SDS011;1359;51.798;12.174;2023-04-25T11:32:49;10.63;;;4.57;;
2698;SDS011;1359;51.798;12.174;2023-04-25T11:35:15;8.23;;;3.30;;
2698;SDS011;1359;51.798;12.174;2023-04-25T11:37:41;5.70;;;3.13;;
2698;SDS011;1359;51.798;12.174;2023-04-25T11:40:06;8.43;;;3.37;;
2698;SDS011;1359;51.798;12.174;2023-04-25T11:42:32;5.57;;;2.63;;
2698;SDS011;1359;51.798;12.174;2023-04-25T11:44:58;9.10;;;3.47;;
2698;SDS011;1359;51.798;12.174;2023-04-25T11:47:28;4.93;;;3.03;;
2698;SDS011;1359;51.798;12.174;2023-04-25T11:49:53;2.37;;;2.13;;
2698;SDS011;1359;51.798;12.174;2023-04-25T11:52:18;4.20;;;2.77;;
2698;SDS011;1359;51.798;12.174;2023-04-25T11:54:44;8.03;;;2.90;;
2698;SDS011;1359;51.798;12.174;2023-04-25T11:57:09;5.77;;;3.17;;
2698;SDS011;1359;51.798;12.174;2023-04-25T11:59:35;7.10;;;2.97;;
2698;SDS011;1359;51.798;12.174;2023-04-25T12:02:00;5.60;;;2.60;;
2698;SDS011;1359;51.798;12.174;2023-04-25T12:04:29;11.53;;;3.80;;
2698;SDS011;1359;51.798;12.174;2023-04-25T12:06:55;5.93;;;3.03;;
2698;SDS011;1359;51.798;12.174;2023-04-25T12:09:21;8.33;;;3.60;;
2698;SDS011;1359;51.798;12.174;2023-04-25T12:11:54;6.83;;;3.67;;
2698;SDS011;1359;51.798;12.174;2023-04-25T12:14:29;5.83;;;3.33;;
2698;SDS011;1359;51.798;12.174;2023-04-25T12:16:56;8.77;;;4.07;;
2698;SDS011;1359;51.798;12.174;2023-04-25T12:19:23;6.70;;;3.00;;
2698;SDS011;1359;51.798;12.174;2023-04-25T12:21:48;4.67;;;2.80;;
2698;SDS011;1359;51.798;12.174;2023-04-25T12:24:18;6.93;;;2.80;;
2698;SDS011;1359;51.798;12.174;2023-04-25T12:29:22;3.40;;;2.77;;
2698;SDS011;1359;51.798;12.174;2023-04-25T12:31:48;11.93;;;3.83;;
2698;SDS011;1359;51.798;12.174;2023-04-25T12:34:14;6.90;;;3.40;;
2698;SDS011;1359;51.798;12.174;2023-04-25T12:36:39;4.23;;;3.13;;
2698;SDS011;1359;51.798;12.174;2023-04-25T12:39:05;6.50;;;3.40;;
2698;SDS011;1359;51.798;12.174;2023-04-25T12:41:31;8.13;;;3.00;;
2698;SDS011;1359;51.798;12.174;2023-04-25T12:43:57;6.33;;;3.17;;
2698;SDS011;1359;51.798;12.174;2023-04-25T12:46:22;8.17;;;4.57;;
2698;SDS011;1359;51.798;12.174;2023-04-25T12:48:50;6.77;;;3.60;;
2698;SDS011;1359;51.798;12.174;2023-04-25T12:51:15;6.90;;;3.53;;
2698;SDS011;1359;51.798;12.174;2023-04-25T12:53:41;8.13;;;3.83;;
2698;SDS011;1359;51.798;12.174;2023-04-25T12:56:07;4.60;;;3.63;;
2698;SDS011;1359;51.798;12.174;2023-04-25T12:58:32;6.67;;;3.60;;
2698;SDS011;1359;51.798;12.174;2023-04-25T13:00:58;5.73;;;3.50;;
2698;SDS011;1359;51.798;12.174;2023-04-25T13:03:24;9.60;;;3.70;;
2698;SDS011;1359;51.798;12.174;2023-04-25T13:05:50;9.83;;;3.80;;
2698;SDS011;1359;51.798;12.174;2023-04-25T13:08:17;3.73;;;3.40;;
2698;SDS011;1359;51.798;12.174;2023-04-25T13:10:43;6.43;;;3.53;;
2698;SDS011;1359;51.798;12.174;2023-04-25T13:13:08;6.33;;;3.40;;
2698;SDS011;1359;51.798;12.174;2023-04-25T13:15:33;7.60;;;3.10;;
2698;SDS011;1359;51.798;12.174;2023-04-25T13:17:59;5.37;;;4.40;;
2698;SDS011;1359;51.798;12.174;2023-04-25T13:20:24;8.40;;;3.70;;
2698;SDS011;1359;51.798;12.174;2023-04-25T13:22:50;8.27;;;3.97;;
2698;SDS011;1359;51.798;12.174;2023-04-25T13:25:15;7.53;;;4.33;;
2698;SDS011;1359;51.798;12.174;2023-04-25T13:27:41;5.70;;;3.70;;
2698;SDS011;1359;51.798;12.174;2023-04-25T13:30:09;7.73;;;3.70;;
2698;SDS011;1359;51.798;12.174;2023-04-25T13:32:35;9.37;;;4.17;;
2698;SDS011;1359;51.798;12.174;2023-04-25T13:35:04;5.33;;;3.47;;
2698;SDS011;1359;51.798;12.174;2023-04-25T13:37:29;5.80;;;4.17;;
2698;SDS011;1359;51.798;12.174;2023-04-25T13:39:55;7.90;;;3.13;;
2698;SDS011;1359;51.798;12.174;2023-04-25T13:42:21;5.63;;;3.83;;
2698;SDS011;1359;51.798;12.174;2023-04-25T13:44:47;9.03;;;3.63;;
2698;SDS011;1359;51.798;12.174;2023-04-25T13:47:12;6.33;;;3.43;;
2698;SDS011;1359;51.798;12.174;2023-04-25T13:49:37;7.20;;;3.93;;
2698;SDS011;1359;51.798;12.174;2023-04-25T13:52:02;6.10;;;3.80;;
2698;SDS011;1359;51.798;12.174;2023-04-25T13:54:28;5.10;;;3.30;;
2698;SDS011;1359;51.798;12.174;2023-04-25T13:56:53;8.50;;;3.70;;
2698;SDS011;1359;51.798;12.174;2023-04-25T13:59:23;6.13;;;3.53;;
2698;SDS011;1359;51.798;12.174;2023-04-25T14:01:49;6.80;;;3.70;;
2698;SDS011;1359;51.798;12.174;2023-04-25T14:04:14;4.57;;;3.23;;
2698;SDS011;1359;51.798;12.174;2023-04-25T14:06:40;18.37;;;4.13;;
2698;SDS011;1359;51.798;12.174;2023-04-25T14:09:06;5.30;;;3.30;;
2698;SDS011;1359;51.798;12.174;2023-04-25T14:11:35;7.20;;;3.43;;
2698;SDS011;1359;51.798;12.174;2023-04-25T14:14:01;5.67;;;3.50;;
2698;SDS011;1359;51.798;12.174;2023-04-25T14:16:26;6.67;;;3.13;;
2698;SDS011;1359;51.798;12.174;2023-04-25T14:18:52;6.80;;;3.50;;
2698;SDS011;1359;51.798;12.174;2023-04-25T14:21:17;7.97;;;3.53;;
2698;SDS011;1359;51.798;12.174;2023-04-25T14:23:42;4.13;;;3.50;;
2698;SDS011;1359;51.798;12.174;2023-04-25T14:26:08;4.17;;;3.20;;
2698;SDS011;1359;51.798;12.174;2023-04-25T14:28:37;6.67;;;3.10;;
2698;SDS011;1359;51.798;12.174;2023-04-25T14:31:02;5.10;;;3.40;;
2698;SDS011;1359;51.798;12.174;2023-04-25T14:33:28;9.50;;;3.50;;
2698;SDS011;1359;51.798;12.174;2023-04-25T14:35:53;4.60;;;3.00;;
2698;SDS011;1359;51.798;12.174;2023-04-25T14:38:18;13.10;;;4.30;;
2698;SDS011;1359;51.798;12.174;2023-04-25T14:40:48;5.10;;;2.63;;
2698;SDS011;1359;51.798;12.174;2023-04-25T14:43:13;5.43;;;3.30;;
2698;SDS011;1359;51.798;12.174;2023-04-25T14:45:39;5.67;;;3.03;;
2698;SDS011;1359;51.798;12.174;2023-04-25T14:48:04;3.83;;;2.93;;
2698;SDS011;1359;51.798;12.174;2023-04-25T14:50:29;5.33;;;2.40;;
2698;SDS011;1359;51.798;12.174;2023-04-25T14:52:55;11.30;;;3.00;;
2698;SDS011;1359;51.798;12.174;2023-04-25T14:55:23;5.70;;;3.13;;
2698;SDS011;1359;51.798;12.174;2023-04-25T14:57:49;5.73;;;2.80;;
2698;SDS011;1359;51.798;12.174;2023-04-25T15:00:14;9.00;;;3.17;;
2698;SDS011;1359;51.798;12.174;2023-04-25T15:02:41;10.13;;;3.40;;
2698;SDS011;1359;51.798;12.174;2023-04-25T15:05:07;5.03;;;3.37;;
2698;SDS011;1359;51.798;12.174;2023-04-25T15:07:33;8.20;;;4.00;;
2698;SDS011;1359;51.798;12.174;2023-04-25T15:09:59;5.77;;;3.20;;
2698;SDS011;1359;51.798;12.174;2023-04-25T15:12:25;7.23;;;4.07;;
2698;SDS011;1359;51.798;12.174;2023-04-25T15:14:53;7.93;;;3.00;;
2698;SDS011;1359;51.798;12.174;2023-04-25T15:17:18;7.83;;;3.50;;